createdAt,value
2022-09-07T00:00:20.332Z,77.71
2022-09-07T00:03:24.544Z,77.70
2022-09-07T00:06:29.335Z,77.76
2022-09-07T00:09:34.452Z,77.83
2022-09-07T00:12:38.078Z,77.80
2022-09-07T00:15:42.044Z,77.79
2022-09-07T00:18:46.733Z,78.10
2022-09-07T00:21:50.512Z,78.17
2022-09-07T00:24:55.564Z,78.06
2022-09-07T00:27:59.231Z,78.27
2022-09-07T00:31:03.354Z,78.05
2022-09-07T00:34:07.351Z,77.84
2022-09-07T00:37:11.216Z,78.15
2022-09-07T00:40:16.262Z,77.84
2022-09-07T00:43:33.209Z,77.81
2022-09-07T00:46:37.056Z,78.12
2022-09-07T00:49:43.393Z,77.93
2022-09-07T00:52:52.364Z,78.30
2022-09-07T00:56:01.002Z,78.04
2022-09-07T00:59:05.390Z,78.06
2022-09-07T01:02:10.025Z,77.98
2022-09-07T01:05:24.703Z,77.91
2022-09-07T01:08:29.807Z,78.08
2022-09-07T01:11:36.251Z,77.86
2022-09-07T01:14:47.391Z,78.02
2022-09-07T01:18:05.213Z,77.79
2022-09-07T01:21:26.563Z,77.54
2022-09-07T01:25:05.292Z,77.77
2022-09-07T01:28:21.775Z,77.79
2022-09-07T01:31:42.980Z,77.84
2022-09-07T01:34:54.985Z,77.83
2022-09-07T01:38:10.889Z,77.84
2022-09-07T01:41:24.824Z,77.84
2022-09-07T01:44:39.017Z,77.76
2022-09-07T01:47:47.354Z,77.88
2022-09-07T01:50:57.821Z,77.83
2022-09-07T01:54:12.413Z,77.85
2022-09-07T01:57:24.991Z,77.70
2022-09-07T02:00:32.426Z,77.89
2022-09-07T02:03:43.547Z,77.75
2022-09-07T02:06:53.048Z,77.88
2022-09-07T02:10:02.799Z,77.78
2022-09-07T02:13:14.265Z,77.71
2022-09-07T02:16:25.785Z,78.12
2022-09-07T02:19:37.724Z,78.02
2022-09-07T02:22:46.773Z,77.96
2022-09-07T02:25:56.187Z,77.83
2022-09-07T02:29:00.210Z,77.82
2022-09-07T02:32:06.499Z,77.85
2022-09-07T02:35:10.924Z,77.80
2022-09-07T02:38:15.105Z,77.92
2022-09-07T02:41:34.230Z,77.97
2022-09-07T02:44:41.913Z,77.86
2022-09-07T02:48:10.683Z,78.07
2022-09-07T02:51:25.695Z,77.82
2022-09-07T02:54:51.028Z,77.87
2022-09-07T02:58:15.017Z,78.16
2022-09-07T03:01:37.404Z,77.94
2022-09-07T03:04:52.309Z,78.37
2022-09-07T03:08:02.369Z,78.30
2022-09-07T03:11:07.808Z,78.20
2022-09-07T03:14:19.161Z,78.42
2022-09-07T03:17:22.903Z,78.97
2022-09-07T03:20:27.931Z,79.21
2022-09-07T03:23:31.581Z,79.38
2022-09-07T03:26:36.967Z,80.25
2022-09-07T03:29:42.100Z,80.72
2022-09-07T03:32:46.009Z,81.57
2022-09-07T03:36:02.459Z,81.63
2022-09-07T03:39:07.623Z,82.08
2022-09-07T03:42:11.330Z,82.90
2022-09-07T03:45:15.186Z,83.40
2022-09-07T03:48:19.070Z,84.56
2022-09-07T03:51:24.186Z,84.55
2022-09-07T03:54:28.104Z,85.32
2022-09-07T03:57:32.059Z,86.02
2022-09-07T04:00:36.213Z,87.10
2022-09-07T04:03:41.068Z,87.48
2022-09-07T04:06:46.151Z,88.04
2022-09-07T04:09:52.341Z,88.43
2022-09-07T04:12:56.355Z,88.82
2022-09-07T04:16:00.329Z,89.06
2022-09-07T04:19:05.135Z,89.54
2022-09-07T04:22:10.225Z,89.62
2022-09-07T04:25:14.059Z,89.38
2022-09-07T04:28:17.890Z,89.61
2022-09-07T04:31:22.965Z,90.01
2022-09-07T04:34:26.767Z,90.19
2022-09-07T04:37:31.909Z,90.02
2022-09-07T04:40:36.160Z,90.15
2022-09-07T04:43:43.357Z,90.25
2022-09-07T04:46:47.214Z,90.24
2022-09-07T04:49:52.348Z,90.21
2022-09-07T04:52:57.586Z,90.34
2022-09-07T04:56:01.684Z,89.97
2022-09-07T04:59:05.926Z,89.52
2022-09-07T05:02:09.885Z,89.82
2022-09-07T05:05:13.651Z,89.31
2022-09-07T05:08:22.923Z,89.54
2022-09-07T05:11:29.723Z,88.89
2022-09-07T05:14:33.716Z,89.00
2022-09-07T05:17:37.371Z,88.88
2022-09-07T05:20:41.820Z,88.83
2022-09-07T05:23:50.655Z,88.71
2022-09-07T05:26:54.920Z,88.94
2022-09-07T05:33:09.143Z,88.96
2022-09-07T05:36:12.924Z,89.48
2022-09-07T05:39:18.661Z,89.43
2022-09-07T05:42:22.771Z,89.99
2022-09-07T05:45:26.732Z,91.17
2022-09-07T05:48:30.805Z,91.83
2022-09-07T05:51:34.918Z,92.75
2022-09-07T05:54:40.251Z,93.49
2022-09-07T05:57:43.951Z,94.41
2022-09-07T06:00:47.820Z,94.89
2022-09-07T06:03:51.723Z,95.60
2022-09-07T06:13:44.855Z,97.19
2022-09-07T06:16:48.616Z,98.01
2022-09-07T06:19:52.379Z,98.19
2022-09-07T06:22:56.117Z,98.63
2022-09-07T06:26:02.146Z,99.11
2022-09-07T06:29:06.015Z,99.28
2022-09-07T06:35:33.315Z,100.00
2022-09-07T06:38:39.467Z,100.00
2022-09-07T06:41:59.816Z,100.00
2022-09-07T06:45:03.599Z,100.00
2022-09-07T06:48:07.329Z,100.00
2022-09-07T06:51:15.718Z,100.00
2022-09-07T06:57:44.551Z,100.00
2022-09-07T07:00:48.491Z,100.00
2022-09-07T07:03:53.639Z,100.00
2022-09-07T07:06:57.372Z,100.00
2022-09-07T07:10:01.044Z,100.00
2022-09-07T07:13:06.133Z,100.00
2022-09-07T07:16:11.716Z,100.00
2022-09-07T07:19:15.803Z,100.00
2022-09-07T07:22:45.023Z,100.00
2022-09-07T07:25:43.189Z,100.00
2022-09-07T07:29:06.076Z,100.00
2022-09-07T07:32:09.858Z,100.00
2022-09-07T07:35:15.102Z,100.00
2022-09-07T07:42:00.316Z,100.00
2022-09-07T07:48:35.970Z,100.00
2022-09-07T07:55:42.981Z,100.00
2022-09-07T07:58:28.265Z,100.00
2022-09-07T08:01:33.395Z,100.00
2022-09-07T08:04:37.620Z,100.00
2022-09-07T08:07:41.280Z,100.00
2022-09-07T08:10:46.141Z,100.00
2022-09-07T08:13:52.172Z,100.00
2022-09-07T08:16:57.232Z,100.00
2022-09-07T08:20:00.767Z,100.00
2022-09-07T08:23:04.499Z,100.00
2022-09-07T08:26:09.557Z,99.90
2022-09-07T08:29:13.426Z,99.64
2022-09-07T08:32:18.397Z,97.78
2022-09-07T08:35:22.087Z,97.21
2022-09-07T08:38:26.308Z,96.39
2022-09-07T08:42:03.143Z,95.86
2022-09-07T08:45:12.983Z,94.48
2022-09-07T08:48:24.914Z,91.90
2022-09-07T08:51:38.365Z,90.63
2022-09-07T08:54:50.976Z,88.51
2022-09-07T08:58:05.134Z,86.36
2022-09-07T09:08:33.571Z,84.57
2022-09-07T09:11:53.901Z,83.86
2022-09-07T09:15:17.632Z,82.97
2022-09-07T09:18:37.674Z,80.67
2022-09-07T09:21:44.673Z,80.32
2022-09-07T09:24:54.062Z,79.39
2022-09-07T09:27:57.741Z,77.96
2022-09-07T09:31:01.442Z,77.77
2022-09-07T09:34:17.702Z,77.82
2022-09-07T09:37:36.777Z,76.67
2022-09-07T09:40:40.704Z,77.37
2022-09-07T09:43:47.952Z,77.27
2022-09-07T09:53:59.234Z,76.62
2022-09-07T09:57:03.606Z,76.48
2022-09-07T10:00:23.635Z,76.10
2022-09-07T10:07:07.891Z,76.24
2022-09-07T10:10:17.867Z,76.05
2022-09-07T10:13:25.253Z,73.71
2022-09-07T10:16:42.261Z,74.55
2022-09-07T10:19:46.053Z,73.42
2022-09-07T10:23:00.758Z,72.91
2022-09-07T10:26:27.163Z,71.94
2022-09-07T10:29:36.031Z,71.07
2022-09-07T10:33:02.287Z,71.71
2022-09-07T10:36:16.438Z,71.10
2022-09-07T10:39:26.704Z,71.28
2022-09-07T10:42:36.611Z,69.50
2022-09-07T10:53:42.071Z,69.08
2022-09-07T10:57:04.249Z,69.01
2022-09-07T11:00:16.447Z,67.75
2022-09-07T11:04:04.232Z,67.90
2022-09-07T11:07:32.035Z,66.93
2022-09-07T11:10:47.589Z,65.67
2022-09-07T11:14:12.443Z,64.40
2022-09-07T11:17:24.501Z,62.97
2022-09-07T11:20:35.564Z,62.60
2022-09-07T11:23:46.110Z,62.34
2022-09-07T11:26:57.557Z,61.76
2022-09-07T11:30:07.084Z,60.66
2022-09-07T11:33:20.592Z,61.20
2022-09-07T11:36:27.974Z,59.87
2022-09-07T11:39:37.415Z,60.28
2022-09-07T11:42:51.192Z,60.13
2022-09-07T11:46:02.640Z,60.87
2022-09-07T11:49:18.988Z,59.59
2022-09-07T11:52:35.331Z,58.93
2022-09-07T11:55:45.328Z,58.13
2022-09-07T11:59:19.348Z,59.00
2022-09-07T12:03:38.192Z,57.50
2022-09-07T12:07:18.446Z,57.09
2022-09-07T12:10:56.088Z,57.07
2022-09-07T12:14:18.944Z,57.77
2022-09-07T12:17:45.712Z,58.30
2022-09-07T12:20:50.496Z,59.56
2022-09-07T12:23:55.542Z,59.02
2022-09-07T12:27:01.836Z,59.50
2022-09-07T12:30:57.911Z,59.04
2022-09-07T12:34:58.996Z,59.09
2022-09-07T12:38:06.059Z,58.57
2022-09-07T12:41:26.598Z,58.09
2022-09-07T12:44:30.188Z,58.58
2022-09-07T12:47:33.891Z,57.76
2022-09-07T12:50:58.931Z,56.75
2022-09-07T12:54:13.760Z,57.18
2022-09-07T12:57:34.456Z,57.26
2022-09-07T13:01:01.007Z,56.79
2022-09-07T13:04:48.637Z,56.95
2022-09-07T13:08:43.981Z,56.29
2022-09-07T13:11:48.478Z,56.54
2022-09-07T13:14:57.218Z,56.25
2022-09-07T13:18:01.301Z,56.60
2022-09-07T13:21:38.645Z,57.10
2022-09-07T13:24:56.806Z,57.05
2022-09-07T13:28:04.495Z,57.33
2022-09-07T13:31:45.184Z,57.40
2022-09-07T13:35:06.762Z,56.98
2022-09-07T13:38:16.705Z,57.19
2022-09-07T13:41:36.226Z,57.57
2022-09-07T13:44:41.696Z,58.06
2022-09-07T13:48:01.678Z,57.90
2022-09-07T13:51:14.309Z,58.59
2022-09-07T13:54:30.166Z,58.10
2022-09-07T13:57:49.487Z,57.91
2022-09-07T14:00:55.837Z,58.05
2022-09-07T14:04:07.636Z,58.87
2022-09-07T14:07:17.095Z,59.02
2022-09-07T14:10:23.268Z,59.40
2022-09-07T14:13:26.849Z,60.20
2022-09-07T14:16:30.629Z,60.67
2022-09-07T14:19:40.847Z,60.88
2022-09-07T14:22:49.414Z,61.59
2022-09-07T14:26:17.166Z,62.35
2022-09-07T14:29:27.007Z,62.96
2022-09-07T14:32:32.167Z,63.22
2022-09-07T14:35:42.407Z,63.56
2022-09-07T14:42:15.216Z,63.76
2022-09-07T14:45:37.522Z,63.36
2022-09-07T14:48:43.125Z,63.16
2022-09-07T14:51:49.275Z,63.32
2022-09-07T14:54:54.138Z,63.14
2022-09-07T14:58:24.054Z,63.95
2022-09-07T15:01:44.126Z,63.93
2022-09-07T15:04:49.039Z,63.79
2022-09-07T15:07:57.866Z,63.41
2022-09-07T15:14:28.106Z,63.64
2022-09-07T15:17:49.283Z,63.64
2022-09-07T15:20:53.158Z,63.48
2022-09-07T15:24:00.792Z,63.33
2022-09-07T15:27:20.823Z,63.47
2022-09-07T15:30:25.293Z,63.10
2022-09-07T15:33:31.454Z,63.50
2022-09-07T15:36:35.102Z,62.79
2022-09-07T15:39:40.480Z,62.98
2022-09-07T15:42:59.963Z,63.42
2022-09-07T15:46:04.376Z,62.90
2022-09-07T15:49:08.222Z,62.67
2022-09-07T15:52:11.766Z,62.65
2022-09-07T15:55:17.394Z,62.56
2022-09-07T15:58:21.686Z,63.23
2022-09-07T16:04:49.701Z,63.74
2022-09-07T16:11:23.990Z,63.91
2022-09-07T16:14:27.887Z,64.37
2022-09-07T16:17:36.698Z,64.21
2022-09-07T16:20:42.183Z,63.65
2022-09-07T16:23:48.975Z,63.15
2022-09-07T16:26:53.910Z,62.87
2022-09-07T16:29:57.566Z,63.18
2022-09-07T16:33:01.288Z,63.37
2022-09-07T16:36:09.211Z,63.61
2022-09-07T16:39:12.862Z,63.53
2022-09-07T16:42:17.802Z,64.14
2022-09-07T16:49:04.097Z,65.46
2022-09-07T16:52:10.810Z,65.98
2022-09-07T16:55:14.779Z,66.63
2022-09-07T16:58:35.715Z,67.31
2022-09-07T17:01:40.061Z,67.92
2022-09-07T17:04:43.656Z,68.36
2022-09-07T17:07:47.714Z,68.64
2022-09-07T17:10:51.243Z,68.93
2022-09-07T17:13:59.070Z,69.20
2022-09-07T17:17:02.723Z,69.34
2022-09-07T17:20:07.963Z,69.35
2022-09-07T17:23:11.599Z,69.37
2022-09-07T17:26:17.072Z,69.71
2022-09-07T17:29:22.306Z,69.97
2022-09-07T17:32:28.627Z,69.95
2022-09-07T17:35:37.411Z,70.13
2022-09-07T17:42:05.587Z,70.66
2022-09-07T17:45:11.647Z,70.80
2022-09-07T17:48:15.402Z,70.88
2022-09-07T17:51:20.135Z,71.14
2022-09-07T17:54:24.902Z,71.73
2022-09-07T17:57:30.884Z,71.98
2022-09-07T18:00:36.007Z,72.28
2022-09-07T18:03:40.235Z,72.66
2022-09-07T18:06:44.214Z,72.85
2022-09-07T18:09:47.777Z,73.58
2022-09-07T18:12:51.419Z,74.08
2022-09-07T18:15:56.625Z,74.84
2022-09-07T18:19:03.613Z,75.13
2022-09-07T18:22:08.744Z,75.64
2022-09-07T18:25:12.795Z,75.96
2022-09-07T18:31:41.365Z,77.33
2022-09-07T18:34:50.239Z,78.13
2022-09-07T18:37:55.318Z,78.77
2022-09-07T18:41:04.594Z,79.20
2022-09-07T18:45:27.274Z,79.42
2022-09-07T18:47:33.483Z,79.77
2022-09-07T18:50:37.407Z,80.08
2022-09-07T18:53:41.460Z,80.43
2022-09-07T18:56:45.085Z,80.78
2022-09-07T18:59:48.811Z,81.05
2022-09-07T19:02:53.846Z,81.58
2022-09-07T19:06:03.728Z,81.67
2022-09-07T19:09:07.358Z,81.85
2022-09-07T19:12:10.986Z,81.97
2022-09-07T19:15:32.302Z,82.38
2022-09-07T19:18:41.474Z,82.70
2022-09-07T19:21:45.091Z,83.21
2022-09-07T19:24:49.509Z,83.58
2022-09-07T19:27:53.173Z,83.63
2022-09-07T19:31:02.733Z,84.08
2022-09-07T19:34:07.850Z,84.14
2022-09-07T19:37:14.604Z,84.37
2022-09-07T19:40:19.409Z,84.78
2022-09-07T19:43:23.169Z,84.92
2022-09-07T19:46:27.615Z,85.27
2022-09-07T19:49:32.739Z,85.55
2022-09-07T19:52:36.882Z,85.91
2022-09-07T19:55:40.861Z,86.27
2022-09-07T19:58:46.376Z,86.66
2022-09-07T20:01:50.917Z,86.99
2022-09-07T20:04:55.963Z,87.08
2022-09-07T20:07:59.667Z,87.43
2022-09-07T20:11:03.976Z,87.54
2022-09-07T20:14:07.758Z,87.61
2022-09-07T20:17:11.520Z,88.04
2022-09-07T20:20:16.717Z,88.04
2022-09-07T20:23:20.732Z,88.21
2022-09-07T20:26:24.985Z,88.51
2022-09-07T20:29:29.574Z,88.72
2022-09-07T20:32:33.251Z,88.74
2022-09-07T20:35:38.163Z,88.71
2022-09-07T20:38:44.127Z,88.93
2022-09-07T20:41:48.176Z,89.20
2022-09-07T20:44:51.919Z,89.36
2022-09-07T20:47:55.527Z,89.60
2022-09-07T20:51:03.978Z,89.68
2022-09-07T20:54:08.215Z,90.03
2022-09-07T20:57:11.976Z,90.76
2022-09-07T21:00:15.933Z,91.08
2022-09-07T21:03:20.289Z,91.69
2022-09-07T21:06:27.405Z,92.33
2022-09-07T21:09:30.985Z,92.82
2022-09-07T21:12:34.676Z,93.23
2022-09-07T21:15:39.469Z,93.84
2022-09-07T21:18:44.407Z,94.36
2022-09-07T21:21:49.389Z,94.28
2022-09-07T21:24:54.164Z,94.59
2022-09-07T21:27:57.831Z,94.54
2022-09-07T21:31:04.699Z,95.05
2022-09-07T21:34:08.344Z,95.48
2022-09-07T21:37:13.327Z,95.74
2022-09-07T21:40:17.380Z,95.86
2022-09-07T21:43:21.048Z,95.93
2022-09-07T21:46:25.073Z,96.04
2022-09-07T21:49:28.746Z,96.04
2022-09-07T21:52:33.754Z,96.19
2022-09-07T21:55:37.664Z,96.16
2022-09-07T21:58:41.584Z,96.21
2022-09-07T22:01:45.244Z,96.19
2022-09-07T22:04:48.892Z,96.23
2022-09-07T22:07:53.967Z,96.32
2022-09-07T22:11:06.324Z,96.65
2022-09-07T22:14:13.395Z,96.58
2022-09-07T22:17:17.111Z,96.83
2022-09-07T22:20:20.998Z,96.73
2022-09-07T22:23:26.043Z,96.58
2022-09-07T22:26:32.371Z,96.50
2022-09-07T22:29:35.927Z,96.58
2022-09-07T22:32:39.512Z,96.50
2022-09-07T22:35:43.290Z,96.70
2022-09-07T22:38:51.406Z,96.59
2022-09-07T22:41:54.952Z,96.66
2022-09-07T22:44:58.829Z,96.54
2022-09-07T22:48:02.522Z,96.68
2022-09-07T22:51:07.264Z,96.73
2022-09-07T22:54:12.586Z,96.71
2022-09-07T22:57:16.203Z,96.65
2022-09-07T23:00:19.907Z,96.30
2022-09-07T23:03:23.544Z,96.39
2022-09-07T23:06:30.769Z,96.55
2022-09-07T23:09:35.763Z,96.55
2022-09-07T23:12:40.484Z,96.38
2022-09-07T23:15:44.400Z,96.17
2022-09-07T23:18:48.325Z,96.41
2022-09-07T23:21:51.939Z,96.37
2022-09-07T23:24:56.882Z,96.73
2022-09-07T23:28:00.546Z,96.35
2022-09-07T23:31:04.224Z,96.36
2022-09-07T23:34:08.574Z,96.71
2022-09-07T23:37:12.101Z,96.81
2022-09-07T23:40:17.317Z,96.96
2022-09-07T23:43:20.902Z,96.90
2022-09-07T23:46:25.333Z,97.10
2022-09-07T23:49:29.209Z,97.02
2022-09-07T23:52:33.759Z,97.07
2022-09-07T23:55:39.673Z,96.78
2022-09-07T23:58:43.399Z,96.95
